sensor_id;sensor_type;location;lat;lon;timestamp;P1;durP1;ratioP1;P2;durP2;ratioP2
72358;SDS011;60317;48.880;-0.862;2023-02-28T00:01:07;2.80;;;1.27;;
72358;SDS011;60317;48.880;-0.862;2023-02-28T00:03:34;2.55;;;1.25;;
72358;SDS011;60317;48.880;-0.862;2023-02-28T00:06:01;2.65;;;1.30;;
72358;SDS011;60317;48.880;-0.862;2023-02-28T00:08:28;2.50;;;1.00;;
72358;SDS011;60317;48.880;-0.862;2023-02-28T00:10:55;3.13;;;1.83;;
72358;SDS011;60317;48.880;-0.862;2023-02-28T00:13:21;1.73;;;1.05;;
72358;SDS011;60317;48.880;-0.862;2023-02-28T00:15:57;2.22;;;1.38;;
72358;SDS011;60317;48.880;-0.862;2023-02-28T00:18:26;2.28;;;1.02;;
72358;SDS011;60317;48.880;-0.862;2023-02-28T00:20:56;2.97;;;1.30;;
72358;SDS011;60317;48.880;-0.862;2023-02-28T00:23:23;2.15;;;1.30;;
72358;SDS011;60317;48.880;-0.862;2023-02-28T00:25:50;2.78;;;1.35;;
72358;SDS011;60317;48.880;-0.862;2023-02-28T00:28:17;2.08;;;1.23;;
72358;SDS011;60317;48.880;-0.862;2023-02-28T00:30:43;2.85;;;1.45;;
72358;SDS011;60317;48.880;-0.862;2023-02-28T00:33:10;2.35;;;1.17;;
72358;SDS011;60317;48.880;-0.862;2023-02-28T00:35:38;2.25;;;1.23;;
72358;SDS011;60317;48.880;-0.862;2023-02-28T00:38:05;2.60;;;1.40;;
72358;SDS011;60317;48.880;-0.862;2023-02-28T00:40:32;2.25;;;1.23;;
72358;SDS011;60317;48.880;-0.862;2023-02-28T00:42:58;2.55;;;1.27;;
72358;SDS011;60317;48.880;-0.862;2023-02-28T00:45:25;2.00;;;1.40;;
72358;SDS011;60317;48.880;-0.862;2023-02-28T00:47:51;4.07;;;1.50;;
72358;SDS011;60317;48.880;-0.862;2023-02-28T00:50:18;3.40;;;1.20;;
72358;SDS011;60317;48.880;-0.862;2023-02-28T00:52:47;2.08;;;1.15;;
72358;SDS011;60317;48.880;-0.862;2023-02-28T00:55:14;3.10;;;1.52;;
72358;SDS011;60317;48.880;-0.862;2023-02-28T00:57:41;1.98;;;1.17;;
72358;SDS011;60317;48.880;-0.862;2023-02-28T01:00:08;2.33;;;1.40;;
72358;SDS011;60317;48.880;-0.862;2023-02-28T01:02:35;2.83;;;1.30;;
72358;SDS011;60317;48.880;-0.862;2023-02-28T01:05:01;1.35;;;1.00;;
72358;SDS011;60317;48.880;-0.862;2023-02-28T01:07:28;2.03;;;1.20;;
72358;SDS011;60317;48.880;-0.862;2023-02-28T01:09:56;1.77;;;0.98;;
72358;SDS011;60317;48.880;-0.862;2023-02-28T01:12:23;2.25;;;1.10;;
72358;SDS011;60317;48.880;-0.862;2023-02-28T01:14:49;3.17;;;1.30;;
72358;SDS011;60317;48.880;-0.862;2023-02-28T01:17:16;2.15;;;1.10;;
72358;SDS011;60317;48.880;-0.862;2023-02-28T01:19:42;1.55;;;1.00;;
72358;SDS011;60317;48.880;-0.862;2023-02-28T01:22:09;2.00;;;1.05;;
72358;SDS011;60317;48.880;-0.862;2023-02-28T01:24:36;1.42;;;1.15;;
72358;SDS011;60317;48.880;-0.862;2023-02-28T01:48:10;2.20;;;1.30;;
72358;SDS011;60317;48.880;-0.862;2023-02-28T01:50:38;2.08;;;1.08;;
72358;SDS011;60317;48.880;-0.862;2023-02-28T01:53:08;1.92;;;1.20;;
72358;SDS011;60317;48.880;-0.862;2023-02-28T01:55:38;1.90;;;0.90;;
72358;SDS011;60317;48.880;-0.862;2023-02-28T01:58:08;2.75;;;1.27;;
72358;SDS011;60317;48.880;-0.862;2023-02-28T02:00:35;1.00;;;0.80;;
72358;SDS011;60317;48.880;-0.862;2023-02-28T02:03:04;1.45;;;1.00;;
72358;SDS011;60317;48.880;-0.862;2023-02-28T02:05:35;2.35;;;1.30;;
72358;SDS011;60317;48.880;-0.862;2023-02-28T02:08:04;1.58;;;1.10;;
72358;SDS011;60317;48.880;-0.862;2023-02-28T02:10:34;1.15;;;0.93;;
72358;SDS011;60317;48.880;-0.862;2023-02-28T02:13:06;2.00;;;0.98;;
72358;SDS011;60317;48.880;-0.862;2023-02-28T02:15:41;1.58;;;0.82;;
72358;SDS011;60317;48.880;-0.862;2023-02-28T02:18:16;1.42;;;1.20;;
72358;SDS011;60317;48.880;-0.862;2023-02-28T02:26:31;2.58;;;1.10;;
72358;SDS011;60317;48.880;-0.862;2023-02-28T02:29:21;2.10;;;1.20;;
72358;SDS011;60317;48.880;-0.862;2023-02-28T02:32:10;1.95;;;1.33;;
72358;SDS011;60317;48.880;-0.862;2023-02-28T02:34:52;1.88;;;1.13;;
72358;SDS011;60317;48.880;-0.862;2023-02-28T02:37:29;2.50;;;1.20;;
72358;SDS011;60317;48.880;-0.862;2023-02-28T02:40:07;2.70;;;1.10;;
72358;SDS011;60317;48.880;-0.862;2023-02-28T02:42:41;2.38;;;1.02;;
72358;SDS011;60317;48.880;-0.862;2023-02-28T02:45:15;1.73;;;0.90;;
72358;SDS011;60317;48.880;-0.862;2023-02-28T02:47:45;1.42;;;0.85;;
72358;SDS011;60317;48.880;-0.862;2023-02-28T02:50:14;1.60;;;1.17;;
72358;SDS011;60317;48.880;-0.862;2023-02-28T02:52:47;2.75;;;1.05;;
72358;SDS011;60317;48.880;-0.862;2023-02-28T02:55:18;1.98;;;1.00;;
72358;SDS011;60317;48.880;-0.862;2023-02-28T02:57:48;2.42;;;1.20;;
72358;SDS011;60317;48.880;-0.862;2023-02-28T03:00:19;1.75;;;1.10;;
72358;SDS011;60317;48.880;-0.862;2023-02-28T03:02:49;1.00;;;0.82;;
72358;SDS011;60317;48.880;-0.862;2023-02-28T03:05:23;2.15;;;1.00;;
72358;SDS011;60317;48.880;-0.862;2023-02-28T03:07:52;1.48;;;1.00;;
72358;SDS011;60317;48.880;-0.862;2023-02-28T03:10:27;1.50;;;1.00;;
72358;SDS011;60317;48.880;-0.862;2023-02-28T03:12:58;1.50;;;0.77;;
72358;SDS011;60317;48.880;-0.862;2023-02-28T03:15:37;2.97;;;0.93;;
72358;SDS011;60317;48.880;-0.862;2023-02-28T03:18:18;3.60;;;1.13;;
72358;SDS011;60317;48.880;-0.862;2023-02-28T03:20:56;2.20;;;1.05;;
72358;SDS011;60317;48.880;-0.862;2023-02-28T03:23:31;1.90;;;1.20;;
72358;SDS011;60317;48.880;-0.862;2023-02-28T03:26:05;1.10;;;0.77;;
72358;SDS011;60317;48.880;-0.862;2023-02-28T03:28:40;2.97;;;1.08;;
72358;SDS011;60317;48.880;-0.862;2023-02-28T03:31:10;1.73;;;1.08;;
72358;SDS011;60317;48.880;-0.862;2023-02-28T03:33:44;2.47;;;1.02;;
72358;SDS011;60317;48.880;-0.862;2023-02-28T03:36:17;2.47;;;1.15;;
72358;SDS011;60317;48.880;-0.862;2023-02-28T03:38:48;2.60;;;1.13;;
72358;SDS011;60317;48.880;-0.862;2023-02-28T03:41:19;1.58;;;1.10;;
72358;SDS011;60317;48.880;-0.862;2023-02-28T03:43:49;1.42;;;1.00;;
72358;SDS011;60317;48.880;-0.862;2023-02-28T03:46:21;1.92;;;1.00;;
72358;SDS011;60317;48.880;-0.862;2023-02-28T03:48:53;1.75;;;1.05;;
72358;SDS011;60317;48.880;-0.862;2023-02-28T03:51:26;1.52;;;1.02;;
72358;SDS011;60317;48.880;-0.862;2023-02-28T03:53:56;1.23;;;0.90;;
72358;SDS011;60317;48.880;-0.862;2023-02-28T03:56:26;1.23;;;1.00;;
72358;SDS011;60317;48.880;-0.862;2023-02-28T03:58:58;2.10;;;1.30;;
72358;SDS011;60317;48.880;-0.862;2023-02-28T04:01:31;2.85;;;1.45;;
72358;SDS011;60317;48.880;-0.862;2023-02-28T04:04:02;3.10;;;1.13;;
72358;SDS011;60317;48.880;-0.862;2023-02-28T04:06:31;2.90;;;1.10;;
72358;SDS011;60317;48.880;-0.862;2023-02-28T04:08:58;2.13;;;1.20;;
72358;SDS011;60317;48.880;-0.862;2023-02-28T04:11:27;2.08;;;1.00;;
72358;SDS011;60317;48.880;-0.862;2023-02-28T04:13:58;2.10;;;1.15;;
72358;SDS011;60317;48.880;-0.862;2023-02-28T04:16:24;2.30;;;1.20;;
72358;SDS011;60317;48.880;-0.862;2023-02-28T04:19:01;2.25;;;1.00;;
72358;SDS011;60317;48.880;-0.862;2023-02-28T04:21:28;3.33;;;1.08;;
72358;SDS011;60317;48.880;-0.862;2023-02-28T04:23:57;1.00;;;0.88;;
72358;SDS011;60317;48.880;-0.862;2023-02-28T04:26:24;1.65;;;1.00;;
72358;SDS011;60317;48.880;-0.862;2023-02-28T04:28:50;1.80;;;1.17;;
72358;SDS011;60317;48.880;-0.862;2023-02-28T04:31:17;2.28;;;1.30;;
72358;SDS011;60317;48.880;-0.862;2023-02-28T04:33:43;1.77;;;1.52;;
72358;SDS011;60317;48.880;-0.862;2023-02-28T04:36:10;1.77;;;0.90;;
72358;SDS011;60317;48.880;-0.862;2023-02-28T04:38:37;2.13;;;0.95;;
72358;SDS011;60317;48.880;-0.862;2023-02-28T04:41:06;3.25;;;1.20;;
72358;SDS011;60317;48.880;-0.862;2023-02-28T04:43:33;1.42;;;0.88;;
72358;SDS011;60317;48.880;-0.862;2023-02-28T04:46:00;1.80;;;1.15;;
72358;SDS011;60317;48.880;-0.862;2023-02-28T04:48:29;1.55;;;1.05;;
72358;SDS011;60317;48.880;-0.862;2023-02-28T04:50:59;1.85;;;1.00;;
72358;SDS011;60317;48.880;-0.862;2023-02-28T04:53:27;1.00;;;0.90;;
72358;SDS011;60317;48.880;-0.862;2023-02-28T04:55:54;1.52;;;0.98;;
72358;SDS011;60317;48.880;-0.862;2023-02-28T04:58:22;1.90;;;1.02;;
72358;SDS011;60317;48.880;-0.862;2023-02-28T05:00:48;1.75;;;1.10;;
72358;SDS011;60317;48.880;-0.862;2023-02-28T05:03:15;2.45;;;1.02;;
72358;SDS011;60317;48.880;-0.862;2023-02-28T05:05:41;2.28;;;1.20;;
72358;SDS011;60317;48.880;-0.862;2023-02-28T05:08:08;1.38;;;1.05;;
72358;SDS011;60317;48.880;-0.862;2023-02-28T05:10:35;1.95;;;1.10;;
72358;SDS011;60317;48.880;-0.862;2023-02-28T05:13:02;2.53;;;1.20;;
72358;SDS011;60317;48.880;-0.862;2023-02-28T05:15:29;2.63;;;1.20;;
72358;SDS011;60317;48.880;-0.862;2023-02-28T05:17:56;1.98;;;0.98;;
72358;SDS011;60317;48.880;-0.862;2023-02-28T05:20:22;2.22;;;1.10;;
72358;SDS011;60317;48.880;-0.862;2023-02-28T05:22:49;2.28;;;1.00;;
72358;SDS011;60317;48.880;-0.862;2023-02-28T05:25:17;1.73;;;1.20;;
72358;SDS011;60317;48.880;-0.862;2023-02-28T05:27:46;0.82;;;0.82;;
72358;SDS011;60317;48.880;-0.862;2023-02-28T05:30:12;1.75;;;1.15;;
72358;SDS011;60317;48.880;-0.862;2023-02-28T05:32:41;2.17;;;1.30;;
72358;SDS011;60317;48.880;-0.862;2023-02-28T05:35:08;1.70;;;1.00;;
72358;SDS011;60317;48.880;-0.862;2023-02-28T05:37:36;2.10;;;1.10;;
72358;SDS011;60317;48.880;-0.862;2023-02-28T05:40:03;3.03;;;1.20;;
72358;SDS011;60317;48.880;-0.862;2023-02-28T05:42:31;1.60;;;1.10;;
72358;SDS011;60317;48.880;-0.862;2023-02-28T05:44:57;1.73;;;1.20;;
72358;SDS011;60317;48.880;-0.862;2023-02-28T05:47:24;2.03;;;1.10;;
72358;SDS011;60317;48.880;-0.862;2023-02-28T05:49:52;2.85;;;1.27;;
72358;SDS011;60317;48.880;-0.862;2023-02-28T05:52:18;2.90;;;1.08;;
72358;SDS011;60317;48.880;-0.862;2023-02-28T05:54:45;2.17;;;1.10;;
72358;SDS011;60317;48.880;-0.862;2023-02-28T05:57:12;2.55;;;1.20;;
72358;SDS011;60317;48.880;-0.862;2023-02-28T05:59:49;2.10;;;1.10;;
72358;SDS011;60317;48.880;-0.862;2023-02-28T06:02:16;35.13;;;3.25;;
72358;SDS011;60317;48.880;-0.862;2023-02-28T06:04:44;37.20;;;3.40;;
72358;SDS011;60317;48.880;-0.862;2023-02-28T06:07:12;20.42;;;2.95;;
72358;SDS011;60317;48.880;-0.862;2023-02-28T06:09:39;20.15;;;2.78;;
72358;SDS011;60317;48.880;-0.862;2023-02-28T06:12:06;12.35;;;2.08;;
72358;SDS011;60317;48.880;-0.862;2023-02-28T06:14:33;10.80;;;2.28;;
72358;SDS011;60317;48.880;-0.862;2023-02-28T06:17:00;20.55;;;3.05;;
72358;SDS011;60317;48.880;-0.862;2023-02-28T06:19:28;13.48;;;2.55;;
72358;SDS011;60317;48.880;-0.862;2023-02-28T06:21:55;12.23;;;2.20;;
72358;SDS011;60317;48.880;-0.862;2023-02-28T06:24:24;11.55;;;2.30;;
72358;SDS011;60317;48.880;-0.862;2023-02-28T06:26:51;14.18;;;2.28;;
72358;SDS011;60317;48.880;-0.862;2023-02-28T06:29:18;12.48;;;2.00;;
72358;SDS011;60317;48.880;-0.862;2023-02-28T06:31:44;12.27;;;2.08;;
72358;SDS011;60317;48.880;-0.862;2023-02-28T06:34:12;8.35;;;1.63;;
72358;SDS011;60317;48.880;-0.862;2023-02-28T06:36:39;13.00;;;1.65;;
72358;SDS011;60317;48.880;-0.862;2023-02-28T06:39:07;8.50;;;1.85;;
72358;SDS011;60317;48.880;-0.862;2023-02-28T06:41:36;7.75;;;2.00;;
72358;SDS011;60317;48.880;-0.862;2023-02-28T06:44:19;2.97;;;1.58;;
72358;SDS011;60317;48.880;-0.862;2023-02-28T06:46:46;9.93;;;2.30;;
72358;SDS011;60317;48.880;-0.862;2023-02-28T06:49:13;10.52;;;2.15;;
72358;SDS011;60317;48.880;-0.862;2023-02-28T06:51:40;4.35;;;1.60;;
72358;SDS011;60317;48.880;-0.862;2023-02-28T06:54:08;7.15;;;1.60;;
72358;SDS011;60317;48.880;-0.862;2023-02-28T06:56:37;3.03;;;1.63;;
72358;SDS011;60317;48.880;-0.862;2023-02-28T06:59:03;4.05;;;1.58;;
72358;SDS011;60317;48.880;-0.862;2023-02-28T07:01:30;6.07;;;1.90;;
72358;SDS011;60317;48.880;-0.862;2023-02-28T07:03:58;5.22;;;1.70;;
72358;SDS011;60317;48.880;-0.862;2023-02-28T07:06:25;3.03;;;1.50;;
72358;SDS011;60317;48.880;-0.862;2023-02-28T07:08:53;11.27;;;1.70;;
72358;SDS011;60317;48.880;-0.862;2023-02-28T07:11:20;6.05;;;1.70;;
72358;SDS011;60317;48.880;-0.862;2023-02-28T07:13:50;4.53;;;1.77;;
72358;SDS011;60317;48.880;-0.862;2023-02-28T07:16:17;9.55;;;1.73;;
72358;SDS011;60317;48.880;-0.862;2023-02-28T07:18:44;9.52;;;2.15;;
72358;SDS011;60317;48.880;-0.862;2023-02-28T07:21:11;7.32;;;1.85;;
72358;SDS011;60317;48.880;-0.862;2023-02-28T07:23:38;6.32;;;2.08;;
72358;SDS011;60317;48.880;-0.862;2023-02-28T07:26:05;6.53;;;1.90;;
72358;SDS011;60317;48.880;-0.862;2023-02-28T07:28:33;4.53;;;1.75;;
72358;SDS011;60317;48.880;-0.862;2023-02-28T07:31:04;4.05;;;1.95;;
72358;SDS011;60317;48.880;-0.862;2023-02-28T07:33:31;15.85;;;2.28;;
72358;SDS011;60317;48.880;-0.862;2023-02-28T07:36:00;9.02;;;2.00;;
72358;SDS011;60317;48.880;-0.862;2023-02-28T07:38:27;6.97;;;2.00;;
72358;SDS011;60317;48.880;-0.862;2023-02-28T07:40:53;13.40;;;4.38;;
72358;SDS011;60317;48.880;-0.862;2023-02-28T07:43:20;17.95;;;3.83;;
72358;SDS011;60317;48.880;-0.862;2023-02-28T07:45:47;9.10;;;2.72;;
72358;SDS011;60317;48.880;-0.862;2023-02-28T07:48:15;6.65;;;2.63;;
72358;SDS011;60317;48.880;-0.862;2023-02-28T07:50:41;10.80;;;2.85;;
72358;SDS011;60317;48.880;-0.862;2023-02-28T07:53:08;5.55;;;2.30;;
72358;SDS011;60317;48.880;-0.862;2023-02-28T07:55:35;6.57;;;2.60;;
72358;SDS011;60317;48.880;-0.862;2023-02-28T07:58:01;6.88;;;2.40;;
72358;SDS011;60317;48.880;-0.862;2023-02-28T08:00:28;8.02;;;2.42;;
72358;SDS011;60317;48.880;-0.862;2023-02-28T08:02:54;12.60;;;3.05;;
72358;SDS011;60317;48.880;-0.862;2023-02-28T08:05:22;6.20;;;2.42;;
72358;SDS011;60317;48.880;-0.862;2023-02-28T08:08:14;7.82;;;2.30;;
72358;SDS011;60317;48.880;-0.862;2023-02-28T08:10:41;4.43;;;2.58;;
72358;SDS011;60317;48.880;-0.862;2023-02-28T08:13:08;5.47;;;2.60;;
72358;SDS011;60317;48.880;-0.862;2023-02-28T08:15:35;8.85;;;2.30;;
72358;SDS011;60317;48.880;-0.862;2023-02-28T08:18:02;12.35;;;2.65;;
72358;SDS011;60317;48.880;-0.862;2023-02-28T08:20:30;5.68;;;2.20;;
72358;SDS011;60317;48.880;-0.862;2023-02-28T08:22:57;7.30;;;2.75;;
72358;SDS011;60317;48.880;-0.862;2023-02-28T08:25:24;13.10;;;2.80;;
72358;SDS011;60317;48.880;-0.862;2023-02-28T08:27:52;9.13;;;2.35;;
72358;SDS011;60317;48.880;-0.862;2023-02-28T08:30:19;8.05;;;2.65;;
72358;SDS011;60317;48.880;-0.862;2023-02-28T08:32:45;8.63;;;2.30;;
72358;SDS011;60317;48.880;-0.862;2023-02-28T08:35:12;7.18;;;2.58;;
72358;SDS011;60317;48.880;-0.862;2023-02-28T08:37:40;5.30;;;2.22;;
72358;SDS011;60317;48.880;-0.862;2023-02-28T08:40:08;8.10;;;2.55;;
72358;SDS011;60317;48.880;-0.862;2023-02-28T08:42:35;14.27;;;3.20;;
72358;SDS011;60317;48.880;-0.862;2023-02-28T08:45:02;8.73;;;2.33;;
72358;SDS011;60317;48.880;-0.862;2023-02-28T08:47:29;10.07;;;2.67;;
72358;SDS011;60317;48.880;-0.862;2023-02-28T08:49:55;5.32;;;2.53;;
72358;SDS011;60317;48.880;-0.862;2023-02-28T08:52:22;7.88;;;2.60;;
72358;SDS011;60317;48.880;-0.862;2023-02-28T08:54:50;7.50;;;2.33;;
72358;SDS011;60317;48.880;-0.862;2023-02-28T08:57:16;6.40;;;2.20;;
72358;SDS011;60317;48.880;-0.862;2023-02-28T08:59:43;5.03;;;2.30;;
72358;SDS011;60317;48.880;-0.862;2023-02-28T09:02:10;10.25;;;3.03;;
72358;SDS011;60317;48.880;-0.862;2023-02-28T09:04:38;6.35;;;2.40;;
72358;SDS011;60317;48.880;-0.862;2023-02-28T09:07:05;8.07;;;2.60;;
72358;SDS011;60317;48.880;-0.862;2023-02-28T09:09:31;7.35;;;2.10;;
72358;SDS011;60317;48.880;-0.862;2023-02-28T09:11:59;11.57;;;2.38;;
72358;SDS011;60317;48.880;-0.862;2023-02-28T09:14:26;7.00;;;2.05;;
72358;SDS011;60317;48.880;-0.862;2023-02-28T09:16:53;11.30;;;2.13;;
72358;SDS011;60317;48.880;-0.862;2023-02-28T09:19:19;4.47;;;1.95;;
72358;SDS011;60317;48.880;-0.862;2023-02-28T09:21:46;7.57;;;2.17;;
72358;SDS011;60317;48.880;-0.862;2023-02-28T09:24:12;8.55;;;2.33;;
72358;SDS011;60317;48.880;-0.862;2023-02-28T09:26:39;8.82;;;2.63;;
72358;SDS011;60317;48.880;-0.862;2023-02-28T09:29:13;12.50;;;3.33;;
72358;SDS011;60317;48.880;-0.862;2023-02-28T09:31:40;10.18;;;3.40;;
72358;SDS011;60317;48.880;-0.862;2023-02-28T09:34:07;14.02;;;3.72;;
72358;SDS011;60317;48.880;-0.862;2023-02-28T09:36:34;15.80;;;3.50;;
72358;SDS011;60317;48.880;-0.862;2023-02-28T09:39:11;22.40;;;3.33;;
72358;SDS011;60317;48.880;-0.862;2023-02-28T09:41:39;21.02;;;3.25;;
72358;SDS011;60317;48.880;-0.862;2023-02-28T09:44:09;28.00;;;3.78;;
72358;SDS011;60317;48.880;-0.862;2023-02-28T09:46:45;12.73;;;3.50;;
72358;SDS011;60317;48.880;-0.862;2023-02-28T09:49:16;8.80;;;2.50;;
72358;SDS011;60317;48.880;-0.862;2023-02-28T09:51:46;9.43;;;2.08;;
72358;SDS011;60317;48.880;-0.862;2023-02-28T09:54:18;9.82;;;2.20;;
72358;SDS011;60317;48.880;-0.862;2023-02-28T09:56:48;13.18;;;2.70;;
72358;SDS011;60317;48.880;-0.862;2023-02-28T09:59:20;13.73;;;2.45;;
72358;SDS011;60317;48.880;-0.862;2023-02-28T10:02:04;6.40;;;1.98;;
72358;SDS011;60317;48.880;-0.862;2023-02-28T10:04:44;7.78;;;3.33;;
72358;SDS011;60317;48.880;-0.862;2023-02-28T10:07:19;7.32;;;2.03;;
72358;SDS011;60317;48.880;-0.862;2023-02-28T10:10:07;11.27;;;2.15;;
72358;SDS011;60317;48.880;-0.862;2023-02-28T10:12:45;6.68;;;2.20;;
72358;SDS011;60317;48.880;-0.862;2023-02-28T10:15:14;8.48;;;2.30;;
72358;SDS011;60317;48.880;-0.862;2023-02-28T10:17:43;10.00;;;2.00;;
72358;SDS011;60317;48.880;-0.862;2023-02-28T10:20:33;6.57;;;1.73;;
72358;SDS011;60317;48.880;-0.862;2023-02-28T10:23:07;3.70;;;1.60;;
72358;SDS011;60317;48.880;-0.862;2023-02-28T10:25:39;7.13;;;1.80;;
72358;SDS011;60317;48.880;-0.862;2023-02-28T10:28:09;3.05;;;1.75;;
72358;SDS011;60317;48.880;-0.862;2023-02-28T10:30:39;10.23;;;2.20;;
72358;SDS011;60317;48.880;-0.862;2023-02-28T10:33:14;7.65;;;1.83;;
72358;SDS011;60317;48.880;-0.862;2023-02-28T10:35:45;3.17;;;1.30;;
72358;SDS011;60317;48.880;-0.862;2023-02-28T10:38:14;9.55;;;1.55;;
72358;SDS011;60317;48.880;-0.862;2023-02-28T10:40:43;1.98;;;1.10;;
72358;SDS011;60317;48.880;-0.862;2023-02-28T10:43:17;6.10;;;1.58;;
72358;SDS011;60317;48.880;-0.862;2023-02-28T10:45:55;3.75;;;1.52;;
72358;SDS011;60317;48.880;-0.862;2023-02-28T10:48:27;6.88;;;1.70;;
72358;SDS011;60317;48.880;-0.862;2023-02-28T10:50:58;3.47;;;1.48;;
72358;SDS011;60317;48.880;-0.862;2023-02-28T10:53:28;4.20;;;1.58;;
72358;SDS011;60317;48.880;-0.862;2023-02-28T10:56:14;7.38;;;1.83;;
72358;SDS011;60317;48.880;-0.862;2023-02-28T10:58:46;11.27;;;1.60;;
72358;SDS011;60317;48.880;-0.862;2023-02-28T11:01:17;4.45;;;1.50;;
72358;SDS011;60317;48.880;-0.862;2023-02-28T11:03:45;8.75;;;1.52;;
72358;SDS011;60317;48.880;-0.862;2023-02-28T11:06:14;13.52;;;2.00;;
72358;SDS011;60317;48.880;-0.862;2023-02-28T11:08:44;7.20;;;1.50;;
72358;SDS011;60317;48.880;-0.862;2023-02-28T11:11:13;6.78;;;1.30;;
72358;SDS011;60317;48.880;-0.862;2023-02-28T11:13:40;7.53;;;1.60;;
72358;SDS011;60317;48.880;-0.862;2023-02-28T11:16:07;5.35;;;1.58;;
72358;SDS011;60317;48.880;-0.862;2023-02-28T11:18:40;4.18;;;1.10;;
72358;SDS011;60317;48.880;-0.862;2023-02-28T11:21:09;4.72;;;1.33;;
72358;SDS011;60317;48.880;-0.862;2023-02-28T11:23:42;3.72;;;1.25;;
72358;SDS011;60317;48.880;-0.862;2023-02-28T11:26:09;3.22;;;1.20;;
72358;SDS011;60317;48.880;-0.862;2023-02-28T11:28:36;1.83;;;0.95;;
72358;SDS011;60317;48.880;-0.862;2023-02-28T11:31:06;3.78;;;1.30;;
72358;SDS011;60317;48.880;-0.862;2023-02-28T11:33:49;2.92;;;0.90;;
72358;SDS011;60317;48.880;-0.862;2023-02-28T11:36:18;3.92;;;1.30;;
72358;SDS011;60317;48.880;-0.862;2023-02-28T11:38:48;4.35;;;1.33;;
72358;SDS011;60317;48.880;-0.862;2023-02-28T11:41:18;2.78;;;1.17;;
72358;SDS011;60317;48.880;-0.862;2023-02-28T11:43:53;7.20;;;1.30;;
72358;SDS011;60317;48.880;-0.862;2023-02-28T11:46:30;8.18;;;1.38;;
72358;SDS011;60317;48.880;-0.862;2023-02-28T11:51:42;3.35;;;1.00;;
72358;SDS011;60317;48.880;-0.862;2023-02-28T11:54:21;10.20;;;1.40;;
72358;SDS011;60317;48.880;-0.862;2023-02-28T11:56:57;3.35;;;1.17;;
72358;SDS011;60317;48.880;-0.862;2023-02-28T11:59:30;3.58;;;1.40;;
72358;SDS011;60317;48.880;-0.862;2023-02-28T12:02:08;8.38;;;1.85;;
72358;SDS011;60317;48.880;-0.862;2023-02-28T12:04:52;15.50;;;2.03;;
72358;SDS011;60317;48.880;-0.862;2023-02-28T12:07:29;7.63;;;2.28;;
72358;SDS011;60317;48.880;-0.862;2023-02-28T12:10:02;18.27;;;3.03;;
72358;SDS011;60317;48.880;-0.862;2023-02-28T12:12:42;17.02;;;3.63;;
72358;SDS011;60317;48.880;-0.862;2023-02-28T12:18:05;18.20;;;2.70;;
72358;SDS011;60317;48.880;-0.862;2023-02-28T12:20:45;17.40;;;3.08;;
72358;SDS011;60317;48.880;-0.862;2023-02-28T12:23:22;25.30;;;2.50;;
72358;SDS011;60317;48.880;-0.862;2023-02-28T12:26:07;19.92;;;3.83;;
72358;SDS011;60317;48.880;-0.862;2023-02-28T12:28:41;18.38;;;2.72;;
72358;SDS011;60317;48.880;-0.862;2023-02-28T12:31:14;21.52;;;2.50;;
72358;SDS011;60317;48.880;-0.862;2023-02-28T12:36:16;25.10;;;2.50;;
72358;SDS011;60317;48.880;-0.862;2023-02-28T12:38:46;16.48;;;2.80;;
72358;SDS011;60317;48.880;-0.862;2023-02-28T12:41:16;18.23;;;2.17;;
72358;SDS011;60317;48.880;-0.862;2023-02-28T12:43:46;19.05;;;3.10;;
72358;SDS011;60317;48.880;-0.862;2023-02-28T12:46:17;14.38;;;2.03;;
72358;SDS011;60317;48.880;-0.862;2023-02-28T12:48:50;7.13;;;2.38;;
72358;SDS011;60317;48.880;-0.862;2023-02-28T12:51:23;20.85;;;2.03;;
72358;SDS011;60317;48.880;-0.862;2023-02-28T12:53:54;18.13;;;2.00;;
72358;SDS011;60317;48.880;-0.862;2023-02-28T12:56:30;12.55;;;2.03;;
72358;SDS011;60317;48.880;-0.862;2023-02-28T12:59:07;18.65;;;2.60;;
72358;SDS011;60317;48.880;-0.862;2023-02-28T13:07:39;12.52;;;2.20;;
72358;SDS011;60317;48.880;-0.862;2023-02-28T13:10:37;12.02;;;2.35;;
72358;SDS011;60317;48.880;-0.862;2023-02-28T13:13:05;8.10;;;2.20;;
72358;SDS011;60317;48.880;-0.862;2023-02-28T13:15:33;7.75;;;2.15;;
72358;SDS011;60317;48.880;-0.862;2023-02-28T13:17:59;10.43;;;2.33;;
72358;SDS011;60317;48.880;-0.862;2023-02-28T13:20:33;15.02;;;3.80;;
72358;SDS011;60317;48.880;-0.862;2023-02-28T13:23:04;7.40;;;1.98;;
72358;SDS011;60317;48.880;-0.862;2023-02-28T13:26:03;15.98;;;2.13;;
72358;SDS011;60317;48.880;-0.862;2023-02-28T13:31:21;6.35;;;2.15;;
72358;SDS011;60317;48.880;-0.862;2023-02-28T13:36:39;7.38;;;2.00;;
72358;SDS011;60317;48.880;-0.862;2023-02-28T13:42:02;5.88;;;2.28;;
72358;SDS011;60317;48.880;-0.862;2023-02-28T13:47:41;13.93;;;2.10;;
72358;SDS011;60317;48.880;-0.862;2023-02-28T13:52:50;2.08;;;1.40;;
72358;SDS011;60317;48.880;-0.862;2023-02-28T13:55:48;3.03;;;1.73;;
72358;SDS011;60317;48.880;-0.862;2023-02-28T14:01:03;4.03;;;1.52;;
72358;SDS011;60317;48.880;-0.862;2023-02-28T14:03:45;6.18;;;1.70;;
72358;SDS011;60317;48.880;-0.862;2023-02-28T14:06:23;2.60;;;1.70;;
72358;SDS011;60317;48.880;-0.862;2023-02-28T14:08:55;6.03;;;1.73;;
72358;SDS011;60317;48.880;-0.862;2023-02-28T14:11:29;5.75;;;2.40;;
72358;SDS011;60317;48.880;-0.862;2023-02-28T14:13:59;7.73;;;1.90;;
72358;SDS011;60317;48.880;-0.862;2023-02-28T14:16:27;14.38;;;2.30;;
72358;SDS011;60317;48.880;-0.862;2023-02-28T14:19:04;5.72;;;2.30;;
72358;SDS011;60317;48.880;-0.862;2023-02-28T14:21:39;6.75;;;2.03;;
72358;SDS011;60317;48.880;-0.862;2023-02-28T14:27:11;14.23;;;3.58;;
72358;SDS011;60317;48.880;-0.862;2023-02-28T14:30:02;13.18;;;3.33;;
72358;SDS011;60317;48.880;-0.862;2023-02-28T14:32:40;16.00;;;5.43;;
72358;SDS011;60317;48.880;-0.862;2023-02-28T14:35:15;36.25;;;8.15;;
72358;SDS011;60317;48.880;-0.862;2023-02-28T14:38:07;34.30;;;7.50;;
72358;SDS011;60317;48.880;-0.862;2023-02-28T14:40:40;27.38;;;6.30;;
72358;SDS011;60317;48.880;-0.862;2023-02-28T14:43:17;30.98;;;6.13;;
72358;SDS011;60317;48.880;-0.862;2023-02-28T14:45:49;32.45;;;5.63;;
72358;SDS011;60317;48.880;-0.862;2023-02-28T14:48:19;25.55;;;4.90;;
72358;SDS011;60317;48.880;-0.862;2023-02-28T14:50:48;29.15;;;4.28;;
72358;SDS011;60317;48.880;-0.862;2023-02-28T14:53:17;26.23;;;4.45;;
72358;SDS011;60317;48.880;-0.862;2023-02-28T14:55:46;25.95;;;4.53;;
72358;SDS011;60317;48.880;-0.862;2023-02-28T14:58:20;22.65;;;4.13;;
72358;SDS011;60317;48.880;-0.862;2023-02-28T15:00:50;21.45;;;3.53;;
72358;SDS011;60317;48.880;-0.862;2023-02-28T15:03:19;17.92;;;3.50;;
72358;SDS011;60317;48.880;-0.862;2023-02-28T15:05:52;13.07;;;3.25;;
72358;SDS011;60317;48.880;-0.862;2023-02-28T15:08:20;11.23;;;2.88;;
72358;SDS011;60317;48.880;-0.862;2023-02-28T15:10:50;17.98;;;2.50;;
72358;SDS011;60317;48.880;-0.862;2023-02-28T15:13:20;14.55;;;2.78;;
72358;SDS011;60317;48.880;-0.862;2023-02-28T15:15:48;9.70;;;2.00;;
72358;SDS011;60317;48.880;-0.862;2023-02-28T15:18:30;5.85;;;2.10;;
72358;SDS011;60317;48.880;-0.862;2023-02-28T15:21:08;13.85;;;2.20;;
72358;SDS011;60317;48.880;-0.862;2023-02-28T15:23:44;4.97;;;2.20;;
72358;SDS011;60317;48.880;-0.862;2023-02-28T15:26:13;5.68;;;2.28;;
72358;SDS011;60317;48.880;-0.862;2023-02-28T15:28:42;9.70;;;2.13;;
72358;SDS011;60317;48.880;-0.862;2023-02-28T15:31:19;5.88;;;2.20;;
72358;SDS011;60317;48.880;-0.862;2023-02-28T15:33:53;6.15;;;1.95;;
72358;SDS011;60317;48.880;-0.862;2023-02-28T15:36:21;6.35;;;2.15;;
72358;SDS011;60317;48.880;-0.862;2023-02-28T15:38:51;7.20;;;1.85;;
72358;SDS011;60317;48.880;-0.862;2023-02-28T15:41:22;8.45;;;1.95;;
72358;SDS011;60317;48.880;-0.862;2023-02-28T15:46:43;9.60;;;1.70;;
72358;SDS011;60317;48.880;-0.862;2023-02-28T15:49:20;8.20;;;1.67;;
72358;SDS011;60317;48.880;-0.862;2023-02-28T15:51:49;3.15;;;1.35;;
72358;SDS011;60317;48.880;-0.862;2023-02-28T15:54:19;3.13;;;1.55;;